Time;durP1;ratioP1;P1;durP2;ratioP2;P2;SDS_P1;SDS_P2;PMS_P1;PMS_P2;Temp;Humidity;BMP_temperature;BMP_pressure;BME280_temperature;BME280_humidity;BME280_pressure;Samples;Min_cycle;Max_cycle;Signal;HPM_P1;HPM_P2
2022/06/14 00:09:17;;;;;;;8.35;1.88;;;;;;;13.30;54.45;100518.25;30981400;28;96821;-61
2022/06/14 00:24:17;;;;;;;4.40;1.60;;;;;;;13.16;55.20;100527.03;30978763;28;96714;-61
2022/06/14 00:39:18;;;;;;;2.42;1.50;;;;;;;12.81;56.62;100546.16;30986667;28;96717;-73
2022/06/14 00:54:30;;;;;;;4.03;1.42;;;;;;;12.58;57.28;100551.47;31018541;28;96772;-62
2022/06/14 01:09:40;;;;;;;2.10;1.30;;;;;;;12.31;57.98;100558.09;31017458;28;97720;-62
2022/06/14 01:24:42;;;;;;;3.50;1.53;;;;;;;12.15;58.69;100570.50;31015743;28;98206;-68
2022/06/14 01:39:43;;;;;;;3.70;1.60;;;;;;;11.96;59.76;100573.53;31015005;28;96741;-61
2022/06/14 01:54:49;;;;;;;5.22;1.75;;;;;;;11.84;60.01;100576.53;31004288;28;96682;-61
2022/06/14 02:10:08;;;;;;;5.17;2.10;;;;;;;11.56;61.25;100584.06;30992373;28;96718;-66
2022/06/14 02:25:23;;;;;;;6.97;1.87;;;;;;;11.53;61.95;100603.06;30989790;28;97534;-61
2022/06/14 02:40:39;;;;;;;4.70;1.87;;;;;;;11.47;61.61;100606.41;30988873;28;96774;-61
2022/06/14 02:55:46;;;;;;;3.60;1.67;;;;;;;11.46;62.47;100616.25;30987376;28;97732;-61
2022/06/14 03:11:16;;;;;;;2.40;1.57;;;;;;;11.38;62.97;100645.56;30984061;28;96812;-64
2022/06/14 03:26:36;;;;;;;3.27;1.80;;;;;;;11.43;63.65;100653.91;30983671;28;97842;-63
2022/06/14 03:41:43;;;;;;;6.23;1.97;;;;;;;11.57;64.07;100651.63;30982753;28;97088;-61
2022/06/14 03:57:09;;;;;;;1.83;1.30;;;;;;;12.17;63.07;100667.31;30979360;28;97830;-61
2022/06/14 04:12:24;;;;;;;4.00;1.50;;;;;;;12.30;62.39;100665.94;30977139;28;97492;-61
2022/06/14 04:28:13;;;;;;;3.33;1.20;;;;;;;12.45;62.79;100671.44;30974098;28;96723;-61
2022/06/14 04:43:19;;;;;;;4.23;1.80;;;;;;;12.82;62.05;100673.50;30959099;28;97579;-62
2022/06/14 04:58:50;;;;;;;3.83;1.40;;;;;;;13.27;61.47;100675.59;30969869;28;99156;-63
2022/06/14 05:14:02;;;;;;;2.40;1.70;;;;;;;13.71;60.80;100673.19;30970933;28;97620;-60
2022/06/14 05:29:29;;;;;;;5.53;1.90;;;;;;;14.10;59.91;100674.03;30981015;28;97430;-62
2022/06/14 05:44:32;;;;;;;5.43;1.47;;;;;;;14.85;58.54;100682.97;30989606;28;96752;-62
2022/06/14 05:59:44;;;;;;;3.50;1.97;;;;;;;16.03;56.07;100692.72;30989296;28;96669;-71
2022/06/14 06:14:55;;;;;;;5.67;1.20;;;;;;;16.10;54.24;100695.47;30987374;28;96861;-63
2022/06/14 06:30:15;;;;;;;2.47;1.20;;;;;;;15.86;54.64;100695.69;30986787;28;97405;-69
2022/06/14 06:45:28;;;;;;;4.07;1.50;;;;;;;16.86;53.89;100695.56;30982791;28;96723;-67
2022/06/14 07:00:32;;;;;;;4.50;1.00;;;;;;;17.53;51.35;100706.59;30982770;28;97422;-63
2022/06/14 07:15:40;;;;;;;7.10;1.40;;;;;;;18.15;49.08;100708.34;30982266;28;97331;-62
2022/06/14 07:31:05;;;;;;;2.20;0.90;;;;;;;18.96;45.85;100691.03;30979005;28;97244;-67
2022/06/14 07:46:10;;;;;;;1.33;0.93;;;;;;;19.14;44.15;100689.50;30977992;28;96750;-67
2022/06/14 08:01:17;;;;;;;3.03;0.70;;;;;;;19.31;42.46;100690.63;30975324;28;96744;-62
2022/06/14 08:16:18;;;;;;;4.60;1.07;;;;;;;20.16;40.97;100697.59;30976109;28;97362;-61
2022/06/14 08:31:44;;;;;;;4.00;1.27;;;;;;;18.91;41.00;100688.94;30974598;28;96704;-61
2022/06/14 08:47:02;;;;;;;5.50;2.30;;;;;;;20.00;39.58;100690.00;30973910;28;96702;-66
2022/06/14 09:02:27;;;;;;;4.83;1.37;;;;;;;20.20;36.84;100671.75;30978405;28;96876;-62
2022/06/14 09:17:52;;;;;;;3.60;1.20;;;;;;;19.83;38.06;100673.50;30992913;28;96767;-68
2022/06/14 09:33:13;;;;;;;2.27;1.00;;;;;;;20.87;35.28;100678.34;30991751;28;97657;-61
2022/06/14 09:48:48;;;;;;;3.33;0.90;;;;;;;21.21;33.94;100676.88;30993313;28;96849;-67
2022/06/14 10:04:12;;;;;;;3.00;0.77;;;;;;;21.94;32.09;100672.28;30989745;28;96759;-73
2022/06/14 10:19:27;;;;;;;3.57;0.90;;;;;;;21.69;30.47;100677.06;30986644;28;96794;-67
2022/06/14 10:34:36;;;;;;;3.87;0.77;;;;;;;22.53;30.01;100670.66;30984443;28;96927;-63
2022/06/14 10:49:55;;;;;;;5.10;1.27;;;;;;;22.95;28.42;100651.41;30984276;28;97294;-63
2022/06/14 11:05:06;;;;;;;4.53;0.77;;;;;;;23.01;28.05;100641.50;30980934;28;97400;-61
2022/06/14 11:20:15;;;;;;;;;;;;;;;22.19;28.54;100649.50;30980861;28;98002;-66
2022/06/14 11:35:43;;;;;;;2.07;0.50;;;;;;;22.65;28.67;100656.00;30980475;28;96712;-61
2022/06/14 11:50:46;;;;;;;2.40;0.60;;;;;;;22.13;27.98;100628.78;30979846;28;97477;-63
2022/06/14 12:05:55;;;;;;;1.43;0.80;;;;;;;22.43;28.46;100628.66;30977348;28;96683;-63
2022/06/14 12:20:55;;;;;;;2.43;1.43;;;;;;;22.54;28.14;100635.13;30971656;28;97188;-62
2022/06/14 12:36:11;;;;;;;5.40;0.90;;;;;;;22.65;28.88;100625.31;30973418;28;96610;-62
2022/06/14 12:51:12;;;;;;;3.83;1.20;;;;;;;23.36;28.65;100624.22;30971067;28;97440;-62
2022/06/14 13:06:39;;;;;;;1.90;0.87;;;;;;;23.39;27.78;100618.28;30972367;28;96643;-60
2022/06/14 13:22:03;;;;;;;2.90;1.00;;;;;;;23.32;28.28;100608.41;30970275;28;96731;-62
2022/06/14 13:37:54;;;;;;;4.40;0.80;;;;;;;23.23;28.30;100611.75;30964433;28;96841;-62
2022/06/14 13:52:54;;;;;;;;;;;;;;;22.95;28.36;100613.38;30969234;28;96992;-62
2022/06/14 14:08:24;;;;;;;3.28;1.25;;;;;;;23.12;29.62;100611.56;30989377;28;96776;-65
2022/06/14 14:23:32;;;;;;;3.93;0.97;;;;;;;23.31;29.36;100601.31;30981833;28;96884;-62
2022/06/14 14:38:52;;;;;;;4.97;0.70;;;;;;;23.02;29.72;100597.78;31032829;28;97118;-63
2022/06/14 14:54:14;;;;;;;6.40;1.03;;;;;;;22.57;29.48;100588.47;31048269;28;97325;-63
2022/06/14 15:09:25;;;;;;;3.63;0.80;;;;;;;22.79;29.61;100576.97;31025760;28;96790;-64
2022/06/14 15:24:28;;;;;;;;;;;;;;;22.14;30.16;100581.56;31022336;28;97294;-64
2022/06/14 15:39:33;;;;;;;5.87;1.07;;;;;;;21.94;30.81;100579.25;30992417;28;96804;-67
2022/06/14 15:54:37;;;;;;;2.97;0.90;;;;;;;21.63;31.11;100582.03;30982811;28;97569;-72
2022/06/14 16:09:51;;;;;;;3.40;0.83;;;;;;;21.39;31.20;100589.28;30975541;28;96793;-66
2022/06/14 16:24:55;;;;;;;2.73;1.00;;;;;;;21.12;32.13;100586.97;30970657;28;96791;-69
2022/06/14 16:40:11;;;;;;;6.03;1.47;;;;;;;20.72;33.19;100592.09;30961948;28;97358;-64
2022/06/14 16:55:24;;;;;;;6.37;1.70;;;;;;;20.71;33.40;100601.25;30963000;28;97526;-62
2022/06/14 17:10:24;;;;;;;4.20;1.10;;;;;;;20.37;34.17;100609.75;30960660;28;97000;-64
2022/06/14 17:41:14;;;;;;;37.10;23.40;;;;;;;18.98;36.84;100626.81;30895932;28;96724;-67
2022/06/14 17:56:45;;;;;;;5.03;1.53;;;;;;;18.36;37.96;100632.63;30980672;28;97410;-64
2022/06/14 18:11:57;;;;;;;5.03;1.50;;;;;;;17.82;39.01;100634.50;30975696;28;97028;-66
2022/06/14 18:27:00;;;;;;;3.23;0.93;;;;;;;17.29;40.57;100640.69;30975813;28;96951;-66
2022/06/14 18:42:20;;;;;;;4.47;1.30;;;;;;;16.69;41.76;100643.09;30976412;28;96724;-64
2022/06/14 18:57:24;;;;;;;6.73;1.37;;;;;;;16.15;43.04;100658.91;30888520;28;96868;-63
2022/06/14 19:12:41;;;;;;;6.60;1.80;;;;;;;15.59;44.07;100670.41;30859112;28;97561;-62
2022/06/14 19:28:02;;;;;;;6.83;1.20;;;;;;;15.08;45.61;100673.97;30859017;28;96688;-67
2022/06/14 19:43:20;;;;;;;4.23;1.60;;;;;;;14.70;46.76;100684.84;30858386;28;96751;-66
2022/06/14 19:58:32;;;;;;;6.20;1.73;;;;;;;14.35;48.12;100692.53;30856371;28;97519;-64
2022/06/14 20:13:37;;;;;;;8.73;3.97;;;;;;;13.98;49.95;100696.91;30854040;28;96733;-65
2022/06/14 20:28:48;;;;;;;5.90;1.40;;;;;;;13.65;51.20;100697.97;30854073;28;96747;-69
2022/06/14 20:43:58;;;;;;;9.90;1.90;;;;;;;13.42;52.40;100707.84;30853824;28;96735;-67
2022/06/14 20:59:00;;;;;;;7.67;2.13;;;;;;;13.15;53.70;100701.91;30859804;28;97204;-68
2022/06/14 21:14:09;;;;;;;9.73;3.07;;;;;;;12.83;54.68;100703.72;30873414;28;96701;-67
2022/06/14 21:29:11;;;;;;;10.13;2.50;;;;;;;12.49;55.53;100711.00;30873233;28;97316;-69
2022/06/14 21:44:12;;;;;;;7.27;2.73;;;;;;;12.28;56.46;100722.22;30912415;28;97472;-68
2022/06/14 21:59:39;;;;;;;10.23;4.60;;;;;;;12.05;57.47;100724.72;30983637;28;96786;-67
2022/06/14 22:14:40;;;;;;;4.77;1.50;;;;;;;11.85;58.19;100718.84;30980604;28;97668;-66
2022/06/14 22:29:45;;;;;;;5.72;2.47;;;;;;;11.65;58.15;100719.16;30981053;28;97172;-70
2022/06/14 22:44:45;;;;;;;5.53;1.83;;;;;;;11.52;59.37;100716.97;30965155;28;97869;-64
2022/06/14 22:59:46;;;;;;;6.28;2.30;;;;;;;11.20;60.03;100722.22;30982130;28;96692;-65
2022/06/14 23:14:47;;;;;;;4.72;1.80;;;;;;;11.08;60.42;100724.34;30971603;28;96975;-69
2022/06/14 23:29:47;;;;;;;6.35;2.00;;;;;;;10.77;60.92;100724.84;30983096;28;96696;-69
2022/06/14 23:44:48;;;;;;;8.93;2.75;;;;;;;10.37;62.27;100736.94;30983323;28;96718;-67
2022/06/14 23:59:48;;;;;;;5.47;2.47;;;;;;;10.23;63.09;100719.66;30981561;28;96724;-68
